Laramie, Wyoming
Current Conditions -  °F | °C
As of 11:53 AM on Friday 21 Nov 2014 (Local Time) from KLAR Reporting Station
Clear Clear  
Wind Chill: 33°   Ceiling: Unl
Heat Index: 42°   Visibility: 10mi
Dew Point: 17°   Wind: 22mph
Humidity: 37%   Direction: 250°WSW
Pressure: 29.95"   Gusts: 28mph
Location:  41.31°N, 105.59°W
Report Text: KLAR 211853Z AUTO 25019G24KT 10SM CLR 06/M08 A2995 RMK AO2 SLP111 T00561083
Loading
Personal Weather Stations






























Interactive Weather Map New forecast layout! Learn more

10-Day Weather Forecast

Advertisements
Track Severe Weather on mobile